sensor_id;sensor_type;location;lat;lon;timestamp;temperature;humidity
20803;DHT22;10562;-33.856;151.182;2023-10-09T00:00:26;24.10;99.90
20803;DHT22;10562;-33.856;151.182;2023-10-09T00:03:21;24.40;99.90
20803;DHT22;10562;-33.856;151.182;2023-10-09T00:05:52;24.50;99.90
20803;DHT22;10562;-33.856;151.182;2023-10-09T00:08:26;24.30;99.90
20803;DHT22;10562;-33.856;151.182;2023-10-09T00:11:00;24.50;99.90
20803;DHT22;10562;-33.856;151.182;2023-10-09T00:13:41;24.40;99.90
20803;DHT22;10562;-33.856;151.182;2023-10-09T00:16:20;24.70;99.90
20803;DHT22;10562;-33.856;151.182;2023-10-09T00:19:03;24.70;99.90
20803;DHT22;10562;-33.856;151.182;2023-10-09T00:21:45;24.50;99.90
20803;DHT22;10562;-33.856;151.182;2023-10-09T00:24:17;24.50;99.90
20803;DHT22;10562;-33.856;151.182;2023-10-09T00:26:51;24.70;99.90
20803;DHT22;10562;-33.856;151.182;2023-10-09T00:29:23;24.90;99.90
20803;DHT22;10562;-33.856;151.182;2023-10-09T00:31:56;24.90;99.90
20803;DHT22;10562;-33.856;151.182;2023-10-09T00:34:45;24.90;99.90
20803;DHT22;10562;-33.856;151.182;2023-10-09T00:37:18;25.00;99.90
20803;DHT22;10562;-33.856;151.182;2023-10-09T00:39:51;25.00;99.90
20803;DHT22;10562;-33.856;151.182;2023-10-09T00:42:25;24.60;99.90
20803;DHT22;10562;-33.856;151.182;2023-10-09T00:44:58;24.70;99.90
20803;DHT22;10562;-33.856;151.182;2023-10-09T00:47:33;24.90;99.90
20803;DHT22;10562;-33.856;151.182;2023-10-09T00:50:11;24.80;99.90
20803;DHT22;10562;-33.856;151.182;2023-10-09T00:52:51;25.00;99.90
20803;DHT22;10562;-33.856;151.182;2023-10-09T00:55:30;25.00;99.90
20803;DHT22;10562;-33.856;151.182;2023-10-09T00:58:12;24.90;99.90
20803;DHT22;10562;-33.856;151.182;2023-10-09T01:00:51;24.60;99.90
20803;DHT22;10562;-33.856;151.182;2023-10-09T01:03:23;24.50;99.90
20803;DHT22;10562;-33.856;151.182;2023-10-09T01:06:00;24.30;99.90
20803;DHT22;10562;-33.856;151.182;2023-10-09T01:08:44;24.30;99.90
20803;DHT22;10562;-33.856;151.182;2023-10-09T01:11:23;24.30;99.90
20803;DHT22;10562;-33.856;151.182;2023-10-09T01:13:57;24.60;99.90
20803;DHT22;10562;-33.856;151.182;2023-10-09T01:16:40;25.00;99.90
20803;DHT22;10562;-33.856;151.182;2023-10-09T01:19:15;25.30;99.90
20803;DHT22;10562;-33.856;151.182;2023-10-09T01:21:57;25.40;99.90
20803;DHT22;10562;-33.856;151.182;2023-10-09T01:24:34;25.50;99.90
20803;DHT22;10562;-33.856;151.182;2023-10-09T01:27:07;25.80;99.90
20803;DHT22;10562;-33.856;151.182;2023-10-09T01:29:42;26.10;99.90
20803;DHT22;10562;-33.856;151.182;2023-10-09T01:32:13;26.30;99.90
20803;DHT22;10562;-33.856;151.182;2023-10-09T01:34:47;26.40;99.90
20803;DHT22;10562;-33.856;151.182;2023-10-09T01:37:19;26.10;99.90
20803;DHT22;10562;-33.856;151.182;2023-10-09T01:39:56;26.00;99.90
20803;DHT22;10562;-33.856;151.182;2023-10-09T01:42:48;26.00;99.90
20803;DHT22;10562;-33.856;151.182;2023-10-09T01:45:18;26.10;99.90
20803;DHT22;10562;-33.856;151.182;2023-10-09T01:47:57;26.20;99.90
20803;DHT22;10562;-33.856;151.182;2023-10-09T01:50:33;26.40;99.90
20803;DHT22;10562;-33.856;151.182;2023-10-09T01:53:04;26.40;99.90
20803;DHT22;10562;-33.856;151.182;2023-10-09T01:55:37;26.40;99.90
20803;DHT22;10562;-33.856;151.182;2023-10-09T01:58:09;26.60;99.90
20803;DHT22;10562;-33.856;151.182;2023-10-09T02:00:52;26.40;99.90
20803;DHT22;10562;-33.856;151.182;2023-10-09T02:03:24;26.60;99.90
20803;DHT22;10562;-33.856;151.182;2023-10-09T02:05:57;26.40;99.90
20803;DHT22;10562;-33.856;151.182;2023-10-09T02:08:31;26.50;99.90
20803;DHT22;10562;-33.856;151.182;2023-10-09T02:11:05;26.60;99.90
20803;DHT22;10562;-33.856;151.182;2023-10-09T02:13:42;26.60;99.90
20803;DHT22;10562;-33.856;151.182;2023-10-09T02:16:14;26.40;99.90
20803;DHT22;10562;-33.856;151.182;2023-10-09T02:18:56;26.50;99.90
20803;DHT22;10562;-33.856;151.182;2023-10-09T02:21:27;26.60;99.90
20803;DHT22;10562;-33.856;151.182;2023-10-09T02:24:08;26.60;99.90
20803;DHT22;10562;-33.856;151.182;2023-10-09T02:26:56;26.40;99.90
20803;DHT22;10562;-33.856;151.182;2023-10-09T02:29:39;26.60;99.90
20803;DHT22;10562;-33.856;151.182;2023-10-09T02:32:10;26.70;99.90
20803;DHT22;10562;-33.856;151.182;2023-10-09T02:34:44;26.70;99.90
20803;DHT22;10562;-33.856;151.182;2023-10-09T02:37:16;26.80;99.90
20803;DHT22;10562;-33.856;151.182;2023-10-09T02:39:51;26.90;99.90
20803;DHT22;10562;-33.856;151.182;2023-10-09T02:42:25;26.50;99.90
20803;DHT22;10562;-33.856;151.182;2023-10-09T02:44:56;26.40;99.90
20803;DHT22;10562;-33.856;151.182;2023-10-09T02:47:27;26.40;99.90
20803;DHT22;10562;-33.856;151.182;2023-10-09T02:50:06;26.40;99.90
20803;DHT22;10562;-33.856;151.182;2023-10-09T02:52:47;26.50;99.90
20803;DHT22;10562;-33.856;151.182;2023-10-09T02:55:21;26.40;99.90
20803;DHT22;10562;-33.856;151.182;2023-10-09T02:57:57;26.40;99.90
20803;DHT22;10562;-33.856;151.182;2023-10-09T03:00:38;26.40;99.90
20803;DHT22;10562;-33.856;151.182;2023-10-09T03:03:12;26.40;99.90
20803;DHT22;10562;-33.856;151.182;2023-10-09T03:05:46;26.10;99.90
20803;DHT22;10562;-33.856;151.182;2023-10-09T03:08:17;26.00;99.90
20803;DHT22;10562;-33.856;151.182;2023-10-09T03:10:49;26.10;99.90
20803;DHT22;10562;-33.856;151.182;2023-10-09T03:13:21;26.20;99.90
20803;DHT22;10562;-33.856;151.182;2023-10-09T03:15:52;26.20;99.90
20803;DHT22;10562;-33.856;151.182;2023-10-09T03:18:23;26.30;99.90
20803;DHT22;10562;-33.856;151.182;2023-10-09T03:20:54;26.40;99.90
20803;DHT22;10562;-33.856;151.182;2023-10-09T03:23:25;26.50;99.90
20803;DHT22;10562;-33.856;151.182;2023-10-09T03:25:57;26.40;99.90
20803;DHT22;10562;-33.856;151.182;2023-10-09T03:28:30;26.40;99.90
20803;DHT22;10562;-33.856;151.182;2023-10-09T03:31:01;26.40;99.90
20803;DHT22;10562;-33.856;151.182;2023-10-09T03:33:34;26.30;99.90
20803;DHT22;10562;-33.856;151.182;2023-10-09T03:36:06;26.20;99.90
20803;DHT22;10562;-33.856;151.182;2023-10-09T03:38:37;26.10;99.90
20803;DHT22;10562;-33.856;151.182;2023-10-09T03:41:08;26.20;99.90
20803;DHT22;10562;-33.856;151.182;2023-10-09T03:43:43;26.00;99.90
20803;DHT22;10562;-33.856;151.182;2023-10-09T03:46:15;26.00;99.90
20803;DHT22;10562;-33.856;151.182;2023-10-09T03:48:54;25.90;99.90
20803;DHT22;10562;-33.856;151.182;2023-10-09T03:51:25;25.70;99.90
20803;DHT22;10562;-33.856;151.182;2023-10-09T03:53:56;25.60;99.90
20803;DHT22;10562;-33.856;151.182;2023-10-09T03:56:27;25.70;99.90
20803;DHT22;10562;-33.856;151.182;2023-10-09T03:59:01;25.90;99.90
20803;DHT22;10562;-33.856;151.182;2023-10-09T04:01:32;26.00;99.90
20803;DHT22;10562;-33.856;151.182;2023-10-09T04:04:07;26.00;99.90
20803;DHT22;10562;-33.856;151.182;2023-10-09T04:06:42;26.00;99.90
20803;DHT22;10562;-33.856;151.182;2023-10-09T04:09:14;26.00;99.90
20803;DHT22;10562;-33.856;151.182;2023-10-09T04:12:03;26.10;99.90
20803;DHT22;10562;-33.856;151.182;2023-10-09T04:14:58;26.30;99.90
20803;DHT22;10562;-33.856;151.182;2023-10-09T04:17:31;26.10;99.90
20803;DHT22;10562;-33.856;151.182;2023-10-09T04:20:10;26.10;99.90
20803;DHT22;10562;-33.856;151.182;2023-10-09T04:22:56;26.20;99.90
20803;DHT22;10562;-33.856;151.182;2023-10-09T04:25:33;26.10;99.90
20803;DHT22;10562;-33.856;151.182;2023-10-09T04:28:13;26.00;99.90
20803;DHT22;10562;-33.856;151.182;2023-10-09T04:30:51;26.10;99.90
20803;DHT22;10562;-33.856;151.182;2023-10-09T04:33:23;26.10;99.90
20803;DHT22;10562;-33.856;151.182;2023-10-09T04:36:10;26.30;99.90
20803;DHT22;10562;-33.856;151.182;2023-10-09T04:38:56;26.40;99.90
20803;DHT22;10562;-33.856;151.182;2023-10-09T04:41:43;26.70;99.90
20803;DHT22;10562;-33.856;151.182;2023-10-09T04:44:44;26.70;99.90
20803;DHT22;10562;-33.856;151.182;2023-10-09T04:47:36;26.70;99.90
20803;DHT22;10562;-33.856;151.182;2023-10-09T04:50:17;26.60;99.90
20803;DHT22;10562;-33.856;151.182;2023-10-09T04:53:04;26.60;99.90
20803;DHT22;10562;-33.856;151.182;2023-10-09T04:55:50;26.50;99.90
20803;DHT22;10562;-33.856;151.182;2023-10-09T04:58:23;26.50;99.90
20803;DHT22;10562;-33.856;151.182;2023-10-09T05:00:55;26.50;99.90
20803;DHT22;10562;-33.856;151.182;2023-10-09T05:03:43;26.60;99.90
20803;DHT22;10562;-33.856;151.182;2023-10-09T05:06:20;26.90;99.90
20803;DHT22;10562;-33.856;151.182;2023-10-09T05:09:13;26.80;99.90
20803;DHT22;10562;-33.856;151.182;2023-10-09T05:11:48;26.70;99.90
20803;DHT22;10562;-33.856;151.182;2023-10-09T05:14:37;27.00;99.90
20803;DHT22;10562;-33.856;151.182;2023-10-09T05:17:31;27.00;99.90
20803;DHT22;10562;-33.856;151.182;2023-10-09T05:20:04;26.90;99.90
20803;DHT22;10562;-33.856;151.182;2023-10-09T05:23:03;27.10;99.90
20803;DHT22;10562;-33.856;151.182;2023-10-09T05:25:51;27.30;99.90
20803;DHT22;10562;-33.856;151.182;2023-10-09T05:28:23;27.60;99.90
20803;DHT22;10562;-33.856;151.182;2023-10-09T05:31:16;27.70;99.90
20803;DHT22;10562;-33.856;151.182;2023-10-09T05:33:59;27.60;99.90
20803;DHT22;10562;-33.856;151.182;2023-10-09T05:36:36;27.70;99.90
20803;DHT22;10562;-33.856;151.182;2023-10-09T05:39:05;27.70;99.90
20803;DHT22;10562;-33.856;151.182;2023-10-09T05:41:57;27.70;99.90
20803;DHT22;10562;-33.856;151.182;2023-10-09T05:44:35;27.20;99.90
20803;DHT22;10562;-33.856;151.182;2023-10-09T05:47:22;26.90;99.90
20803;DHT22;10562;-33.856;151.182;2023-10-09T05:50:03;27.10;99.90
20803;DHT22;10562;-33.856;151.182;2023-10-09T05:52:52;27.30;99.90
20803;DHT22;10562;-33.856;151.182;2023-10-09T05:55:44;27.20;99.90
20803;DHT22;10562;-33.856;151.182;2023-10-09T05:58:43;27.30;99.90
20803;DHT22;10562;-33.856;151.182;2023-10-09T06:01:32;27.40;99.90
20803;DHT22;10562;-33.856;151.182;2023-10-09T06:04:18;27.40;99.90
20803;DHT22;10562;-33.856;151.182;2023-10-09T06:06:53;27.30;99.90
20803;DHT22;10562;-33.856;151.182;2023-10-09T06:09:42;27.20;99.90
20803;DHT22;10562;-33.856;151.182;2023-10-09T06:12:23;27.20;99.90
20803;DHT22;10562;-33.856;151.182;2023-10-09T06:15:10;26.80;99.90
20803;DHT22;10562;-33.856;151.182;2023-10-09T06:17:59;26.80;99.90
20803;DHT22;10562;-33.856;151.182;2023-10-09T06:20:48;26.50;99.90
20803;DHT22;10562;-33.856;151.182;2023-10-09T06:23:43;26.80;99.90
20803;DHT22;10562;-33.856;151.182;2023-10-09T06:26:47;26.90;99.90
20803;DHT22;10562;-33.856;151.182;2023-10-09T06:29:34;26.90;99.90
20803;DHT22;10562;-33.856;151.182;2023-10-09T06:32:05;26.70;99.90
20803;DHT22;10562;-33.856;151.182;2023-10-09T06:34:49;26.60;99.90
20803;DHT22;10562;-33.856;151.182;2023-10-09T06:37:24;26.80;99.90
20803;DHT22;10562;-33.856;151.182;2023-10-09T06:40:11;26.40;99.90
20803;DHT22;10562;-33.856;151.182;2023-10-09T06:42:56;26.00;99.90
20803;DHT22;10562;-33.856;151.182;2023-10-09T06:45:36;25.40;99.90
20803;DHT22;10562;-33.856;151.182;2023-10-09T06:48:14;24.80;99.90
20803;DHT22;10562;-33.856;151.182;2023-10-09T06:51:04;24.90;99.90
20803;DHT22;10562;-33.856;151.182;2023-10-09T06:53:40;25.20;99.90
20803;DHT22;10562;-33.856;151.182;2023-10-09T06:56:32;25.50;99.90
20803;DHT22;10562;-33.856;151.182;2023-10-09T06:59:17;25.70;99.90
20803;DHT22;10562;-33.856;151.182;2023-10-09T07:01:52;25.50;99.90
20803;DHT22;10562;-33.856;151.182;2023-10-09T07:04:35;25.90;99.90
20803;DHT22;10562;-33.856;151.182;2023-10-09T07:07:23;25.90;99.90
20803;DHT22;10562;-33.856;151.182;2023-10-09T07:09:54;25.50;99.90
20803;DHT22;10562;-33.856;151.182;2023-10-09T07:12:41;24.90;99.90
20803;DHT22;10562;-33.856;151.182;2023-10-09T07:15:22;24.30;99.90
20803;DHT22;10562;-33.856;151.182;2023-10-09T07:18:24;23.60;99.90
20803;DHT22;10562;-33.856;151.182;2023-10-09T07:21:15;22.80;99.90
20803;DHT22;10562;-33.856;151.182;2023-10-09T07:23:56;22.30;99.90
20803;DHT22;10562;-33.856;151.182;2023-10-09T07:26:41;21.80;99.90
20803;DHT22;10562;-33.856;151.182;2023-10-09T07:29:21;21.50;99.90
20803;DHT22;10562;-33.856;151.182;2023-10-09T07:31:55;21.20;99.90
20803;DHT22;10562;-33.856;151.182;2023-10-09T07:34:40;21.00;99.90
20803;DHT22;10562;-33.856;151.182;2023-10-09T07:37:23;20.80;99.90
20803;DHT22;10562;-33.856;151.182;2023-10-09T07:39:58;20.60;99.90
20803;DHT22;10562;-33.856;151.182;2023-10-09T07:42:34;20.50;99.90
20803;DHT22;10562;-33.856;151.182;2023-10-09T07:45:13;20.40;99.90
20803;DHT22;10562;-33.856;151.182;2023-10-09T07:47:59;20.30;99.90
20803;DHT22;10562;-33.856;151.182;2023-10-09T07:50:39;20.10;99.90
20803;DHT22;10562;-33.856;151.182;2023-10-09T07:53:16;20.00;99.90
20803;DHT22;10562;-33.856;151.182;2023-10-09T07:55:53;19.90;99.90
20803;DHT22;10562;-33.856;151.182;2023-10-09T07:58:26;19.80;99.90
20803;DHT22;10562;-33.856;151.182;2023-10-09T08:00:58;19.80;99.90
20803;DHT22;10562;-33.856;151.182;2023-10-09T08:03:47;19.70;99.90
20803;DHT22;10562;-33.856;151.182;2023-10-09T08:06:25;19.60;99.90
20803;DHT22;10562;-33.856;151.182;2023-10-09T08:09:10;19.50;99.90
20803;DHT22;10562;-33.856;151.182;2023-10-09T08:12:06;19.40;99.90
20803;DHT22;10562;-33.856;151.182;2023-10-09T08:14:55;19.30;99.90
20803;DHT22;10562;-33.856;151.182;2023-10-09T08:17:40;19.10;99.90
20803;DHT22;10562;-33.856;151.182;2023-10-09T08:20:18;19.10;99.90
20803;DHT22;10562;-33.856;151.182;2023-10-09T08:22:53;19.00;99.90
20803;DHT22;10562;-33.856;151.182;2023-10-09T08:25:24;19.00;99.90
20803;DHT22;10562;-33.856;151.182;2023-10-09T08:28:00;19.00;99.90
20803;DHT22;10562;-33.856;151.182;2023-10-09T08:30:53;19.00;99.90
20803;DHT22;10562;-33.856;151.182;2023-10-09T08:33:46;19.00;99.90
20803;DHT22;10562;-33.856;151.182;2023-10-09T08:36:26;19.00;99.90
20803;DHT22;10562;-33.856;151.182;2023-10-09T08:39:04;18.90;99.90
20803;DHT22;10562;-33.856;151.182;2023-10-09T08:41:53;18.90;99.90
20803;DHT22;10562;-33.856;151.182;2023-10-09T08:44:26;18.80;99.90
20803;DHT22;10562;-33.856;151.182;2023-10-09T08:47:00;18.70;99.90
20803;DHT22;10562;-33.856;151.182;2023-10-09T08:49:31;18.70;99.90
20803;DHT22;10562;-33.856;151.182;2023-10-09T08:52:05;18.60;99.90
20803;DHT22;10562;-33.856;151.182;2023-10-09T08:54:38;18.60;99.90
20803;DHT22;10562;-33.856;151.182;2023-10-09T08:57:09;18.50;99.90
20803;DHT22;10562;-33.856;151.182;2023-10-09T08:59:42;18.40;99.90
20803;DHT22;10562;-33.856;151.182;2023-10-09T09:02:14;18.40;99.90
20803;DHT22;10562;-33.856;151.182;2023-10-09T09:04:49;18.40;99.90
20803;DHT22;10562;-33.856;151.182;2023-10-09T09:07:31;18.50;99.90
20803;DHT22;10562;-33.856;151.182;2023-10-09T09:10:07;18.50;99.90
20803;DHT22;10562;-33.856;151.182;2023-10-09T09:12:49;18.50;99.90
20803;DHT22;10562;-33.856;151.182;2023-10-09T09:15:21;18.50;99.90
20803;DHT22;10562;-33.856;151.182;2023-10-09T09:18:04;18.50;99.90
20803;DHT22;10562;-33.856;151.182;2023-10-09T09:20:38;18.50;99.90
20803;DHT22;10562;-33.856;151.182;2023-10-09T09:23:15;18.50;99.90
20803;DHT22;10562;-33.856;151.182;2023-10-09T09:25:51;18.40;99.90
20803;DHT22;10562;-33.856;151.182;2023-10-09T09:28:28;18.40;99.90
20803;DHT22;10562;-33.856;151.182;2023-10-09T09:31:09;18.40;99.90
20803;DHT22;10562;-33.856;151.182;2023-10-09T09:33:43;18.40;99.90
20803;DHT22;10562;-33.856;151.182;2023-10-09T09:36:16;18.40;99.90
20803;DHT22;10562;-33.856;151.182;2023-10-09T09:38:49;18.40;99.90
20803;DHT22;10562;-33.856;151.182;2023-10-09T09:41:20;18.40;99.90
20803;DHT22;10562;-33.856;151.182;2023-10-09T09:43:55;18.30;99.90
20803;DHT22;10562;-33.856;151.182;2023-10-09T09:46:28;18.20;99.90
20803;DHT22;10562;-33.856;151.182;2023-10-09T09:49:03;18.20;99.90
20803;DHT22;10562;-33.856;151.182;2023-10-09T09:51:44;18.10;99.90
20803;DHT22;10562;-33.856;151.182;2023-10-09T09:54:17;18.00;99.90
20803;DHT22;10562;-33.856;151.182;2023-10-09T09:56:50;17.90;99.90
20803;DHT22;10562;-33.856;151.182;2023-10-09T09:59:26;17.90;99.90
20803;DHT22;10562;-33.856;151.182;2023-10-09T10:02:03;17.90;99.90
20803;DHT22;10562;-33.856;151.182;2023-10-09T10:04:38;17.90;99.90
20803;DHT22;10562;-33.856;151.182;2023-10-09T10:07:10;17.80;99.90
20803;DHT22;10562;-33.856;151.182;2023-10-09T10:09:45;17.80;99.90
20803;DHT22;10562;-33.856;151.182;2023-10-09T10:16:00;17.70;99.90
20803;DHT22;10562;-33.856;151.182;2023-10-09T10:18:54;17.60;99.90
20803;DHT22;10562;-33.856;151.182;2023-10-09T10:21:28;17.60;99.90
20803;DHT22;10562;-33.856;151.182;2023-10-09T10:27:31;17.50;99.90
20803;DHT22;10562;-33.856;151.182;2023-10-09T10:30:31;17.50;99.90
20803;DHT22;10562;-33.856;151.182;2023-10-09T10:33:04;17.50;99.90
20803;DHT22;10562;-33.856;151.182;2023-10-09T10:35:43;17.40;99.90
20803;DHT22;10562;-33.856;151.182;2023-10-09T10:38:30;17.30;99.90
20803;DHT22;10562;-33.856;151.182;2023-10-09T10:41:14;17.30;99.90
20803;DHT22;10562;-33.856;151.182;2023-10-09T10:43:52;17.20;99.90
20803;DHT22;10562;-33.856;151.182;2023-10-09T10:46:27;17.20;99.90
20803;DHT22;10562;-33.856;151.182;2023-10-09T10:49:03;17.10;99.90
20803;DHT22;10562;-33.856;151.182;2023-10-09T10:51:43;17.10;99.90
20803;DHT22;10562;-33.856;151.182;2023-10-09T10:54:25;17.00;99.90
20803;DHT22;10562;-33.856;151.182;2023-10-09T10:57:18;17.00;99.90
20803;DHT22;10562;-33.856;151.182;2023-10-09T11:00:23;16.90;99.90
20803;DHT22;10562;-33.856;151.182;2023-10-09T11:03:10;16.90;99.90
20803;DHT22;10562;-33.856;151.182;2023-10-09T11:05:47;16.80;99.90
20803;DHT22;10562;-33.856;151.182;2023-10-09T11:08:23;16.80;99.90
20803;DHT22;10562;-33.856;151.182;2023-10-09T11:11:12;16.70;99.90
20803;DHT22;10562;-33.856;151.182;2023-10-09T11:13:47;16.60;99.90
20803;DHT22;10562;-33.856;151.182;2023-10-09T11:16:27;16.60;99.90
20803;DHT22;10562;-33.856;151.182;2023-10-09T11:19:08;16.50;99.90
20803;DHT22;10562;-33.856;151.182;2023-10-09T11:21:52;16.50;99.90
20803;DHT22;10562;-33.856;151.182;2023-10-09T11:24:50;16.40;99.90
20803;DHT22;10562;-33.856;151.182;2023-10-09T11:27:45;16.40;99.90
20803;DHT22;10562;-33.856;151.182;2023-10-09T11:30:32;16.40;99.90
20803;DHT22;10562;-33.856;151.182;2023-10-09T11:33:08;16.30;99.90
20803;DHT22;10562;-33.856;151.182;2023-10-09T11:35:56;16.30;99.90
20803;DHT22;10562;-33.856;151.182;2023-10-09T11:38:37;16.20;99.90
20803;DHT22;10562;-33.856;151.182;2023-10-09T11:41:14;16.20;99.90
20803;DHT22;10562;-33.856;151.182;2023-10-09T11:43:54;16.20;99.90
20803;DHT22;10562;-33.856;151.182;2023-10-09T11:46:25;16.10;99.90
20803;DHT22;10562;-33.856;151.182;2023-10-09T11:49:20;16.10;99.90
20803;DHT22;10562;-33.856;151.182;2023-10-09T11:52:08;16.10;99.90
20803;DHT22;10562;-33.856;151.182;2023-10-09T11:54:55;16.00;99.90
20803;DHT22;10562;-33.856;151.182;2023-10-09T11:57:26;16.00;99.90
20803;DHT22;10562;-33.856;151.182;2023-10-09T12:00:02;15.90;99.90
20803;DHT22;10562;-33.856;151.182;2023-10-09T12:02:55;15.90;99.90
20803;DHT22;10562;-33.856;151.182;2023-10-09T12:05:34;15.80;99.90
20803;DHT22;10562;-33.856;151.182;2023-10-09T12:08:05;15.80;99.90
20803;DHT22;10562;-33.856;151.182;2023-10-09T12:10:37;15.80;99.90
20803;DHT22;10562;-33.856;151.182;2023-10-09T12:13:08;15.80;99.90
20803;DHT22;10562;-33.856;151.182;2023-10-09T12:15:39;15.80;99.90
20803;DHT22;10562;-33.856;151.182;2023-10-09T12:18:14;15.80;99.90
20803;DHT22;10562;-33.856;151.182;2023-10-09T12:20:48;15.80;99.90
20803;DHT22;10562;-33.856;151.182;2023-10-09T12:23:30;15.80;99.90
20803;DHT22;10562;-33.856;151.182;2023-10-09T12:26:03;15.90;99.90
20803;DHT22;10562;-33.856;151.182;2023-10-09T12:28:42;15.90;99.90
20803;DHT22;10562;-33.856;151.182;2023-10-09T12:31:14;15.90;99.90
20803;DHT22;10562;-33.856;151.182;2023-10-09T12:33:47;16.00;99.90
20803;DHT22;10562;-33.856;151.182;2023-10-09T12:36:21;16.00;99.90
20803;DHT22;10562;-33.856;151.182;2023-10-09T12:38:52;16.00;99.90
20803;DHT22;10562;-33.856;151.182;2023-10-09T12:41:26;16.00;99.90
20803;DHT22;10562;-33.856;151.182;2023-10-09T12:44:01;16.00;99.90
20803;DHT22;10562;-33.856;151.182;2023-10-09T12:46:32;16.00;99.90
20803;DHT22;10562;-33.856;151.182;2023-10-09T12:49:05;16.00;99.90
20803;DHT22;10562;-33.856;151.182;2023-10-09T12:51:37;16.00;99.90
20803;DHT22;10562;-33.856;151.182;2023-10-09T12:54:08;16.10;99.90
20803;DHT22;10562;-33.856;151.182;2023-10-09T12:56:42;16.10;99.90
20803;DHT22;10562;-33.856;151.182;2023-10-09T12:59:16;16.00;99.90
20803;DHT22;10562;-33.856;151.182;2023-10-09T13:01:47;16.00;99.90
20803;DHT22;10562;-33.856;151.182;2023-10-09T13:04:20;16.00;99.90
20803;DHT22;10562;-33.856;151.182;2023-10-09T13:06:53;16.00;99.90
20803;DHT22;10562;-33.856;151.182;2023-10-09T13:09:29;16.00;99.90
20803;DHT22;10562;-33.856;151.182;2023-10-09T13:12:10;15.90;99.90
20803;DHT22;10562;-33.856;151.182;2023-10-09T13:14:45;16.00;99.90
20803;DHT22;10562;-33.856;151.182;2023-10-09T13:17:17;15.90;99.90
20803;DHT22;10562;-33.856;151.182;2023-10-09T13:19:49;15.90;99.90
20803;DHT22;10562;-33.856;151.182;2023-10-09T13:22:22;15.80;99.90
20803;DHT22;10562;-33.856;151.182;2023-10-09T13:24:53;15.80;99.90
20803;DHT22;10562;-33.856;151.182;2023-10-09T13:27:31;15.80;99.90
20803;DHT22;10562;-33.856;151.182;2023-10-09T13:30:02;15.80;99.90
20803;DHT22;10562;-33.856;151.182;2023-10-09T13:32:36;15.80;99.90
20803;DHT22;10562;-33.856;151.182;2023-10-09T13:35:07;15.70;99.90
20803;DHT22;10562;-33.856;151.182;2023-10-09T13:37:43;15.60;99.90
20803;DHT22;10562;-33.856;151.182;2023-10-09T13:40:22;15.60;99.90
20803;DHT22;10562;-33.856;151.182;2023-10-09T13:42:56;15.60;99.90
20803;DHT22;10562;-33.856;151.182;2023-10-09T13:45:28;15.50;99.90
20803;DHT22;10562;-33.856;151.182;2023-10-09T13:48:00;15.50;99.90
20803;DHT22;10562;-33.856;151.182;2023-10-09T13:50:33;15.50;99.90
20803;DHT22;10562;-33.856;151.182;2023-10-09T13:53:12;15.40;99.90
20803;DHT22;10562;-33.856;151.182;2023-10-09T13:55:43;15.40;99.90
20803;DHT22;10562;-33.856;151.182;2023-10-09T13:58:15;15.50;99.90
20803;DHT22;10562;-33.856;151.182;2023-10-09T14:00:49;15.50;99.90
20803;DHT22;10562;-33.856;151.182;2023-10-09T14:03:21;15.40;99.90
20803;DHT22;10562;-33.856;151.182;2023-10-09T14:05:52;15.40;99.90
20803;DHT22;10562;-33.856;151.182;2023-10-09T14:08:26;15.40;99.90
20803;DHT22;10562;-33.856;151.182;2023-10-09T14:10:57;15.50;99.90
20803;DHT22;10562;-33.856;151.182;2023-10-09T14:13:28;15.60;99.90
20803;DHT22;10562;-33.856;151.182;2023-10-09T14:15:59;15.60;99.90
20803;DHT22;10562;-33.856;151.182;2023-10-09T14:18:30;15.60;99.90
20803;DHT22;10562;-33.856;151.182;2023-10-09T14:21:02;15.60;99.90
20803;DHT22;10562;-33.856;151.182;2023-10-09T14:23:45;15.50;99.90
20803;DHT22;10562;-33.856;151.182;2023-10-09T14:26:16;15.60;99.90
20803;DHT22;10562;-33.856;151.182;2023-10-09T14:28:50;15.60;99.90
20803;DHT22;10562;-33.856;151.182;2023-10-09T14:31:20;15.60;99.90
20803;DHT22;10562;-33.856;151.182;2023-10-09T14:33:55;15.70;99.90
20803;DHT22;10562;-33.856;151.182;2023-10-09T14:36:26;15.90;99.90
20803;DHT22;10562;-33.856;151.182;2023-10-09T14:39:03;15.90;99.90
20803;DHT22;10562;-33.856;151.182;2023-10-09T14:41:34;15.80;99.90
20803;DHT22;10562;-33.856;151.182;2023-10-09T14:44:05;15.80;99.90
20803;DHT22;10562;-33.856;151.182;2023-10-09T14:46:44;15.80;99.90
20803;DHT22;10562;-33.856;151.182;2023-10-09T14:49:17;15.80;99.90
20803;DHT22;10562;-33.856;151.182;2023-10-09T14:51:49;15.80;99.90
20803;DHT22;10562;-33.856;151.182;2023-10-09T14:54:23;15.80;99.90
20803;DHT22;10562;-33.856;151.182;2023-10-09T14:56:54;15.70;99.90
20803;DHT22;10562;-33.856;151.182;2023-10-09T14:59:24;15.70;99.90
20803;DHT22;10562;-33.856;151.182;2023-10-09T15:01:55;15.80;99.90
20803;DHT22;10562;-33.856;151.182;2023-10-09T15:04:27;15.80;99.90
20803;DHT22;10562;-33.856;151.182;2023-10-09T15:06:57;15.70;99.90
20803;DHT22;10562;-33.856;151.182;2023-10-09T15:09:31;15.70;99.90
20803;DHT22;10562;-33.856;151.182;2023-10-09T15:12:04;15.60;99.90
20803;DHT22;10562;-33.856;151.182;2023-10-09T15:14:35;15.70;99.90
20803;DHT22;10562;-33.856;151.182;2023-10-09T15:17:07;15.60;99.90
20803;DHT22;10562;-33.856;151.182;2023-10-09T15:19:38;15.50;99.90
20803;DHT22;10562;-33.856;151.182;2023-10-09T15:22:09;15.60;99.90
20803;DHT22;10562;-33.856;151.182;2023-10-09T15:24:42;15.60;99.90
20803;DHT22;10562;-33.856;151.182;2023-10-09T15:27:12;15.60;99.90
20803;DHT22;10562;-33.856;151.182;2023-10-09T15:29:43;15.70;99.90
20803;DHT22;10562;-33.856;151.182;2023-10-09T15:32:14;15.70;99.90
20803;DHT22;10562;-33.856;151.182;2023-10-09T15:34:54;15.70;99.90
20803;DHT22;10562;-33.856;151.182;2023-10-09T15:37:25;15.60;99.90
20803;DHT22;10562;-33.856;151.182;2023-10-09T15:39:59;15.60;99.90
20803;DHT22;10562;-33.856;151.182;2023-10-09T15:42:42;15.60;99.90
20803;DHT22;10562;-33.856;151.182;2023-10-09T15:45:17;15.60;99.90
20803;DHT22;10562;-33.856;151.182;2023-10-09T15:47:49;15.60;99.90
20803;DHT22;10562;-33.856;151.182;2023-10-09T15:50:21;15.60;99.90
20803;DHT22;10562;-33.856;151.182;2023-10-09T15:52:54;15.60;99.90
20803;DHT22;10562;-33.856;151.182;2023-10-09T15:55:28;15.60;99.90
20803;DHT22;10562;-33.856;151.182;2023-10-09T15:58:01;15.60;99.90